sensor_id;sensor_type;location;lat;lon;timestamp;P1;durP1;ratioP1;P2;durP2;ratioP2
22429;SDS011;11382;48.086;11.632;2023-02-15T00:00:14;32.75;;;14.07;;
22429;SDS011;11382;48.086;11.632;2023-02-15T00:02:42;52.40;;;14.23;;
22429;SDS011;11382;48.086;11.632;2023-02-15T00:05:10;60.92;;;15.45;;
22429;SDS011;11382;48.086;11.632;2023-02-15T00:07:38;39.38;;;15.05;;
22429;SDS011;11382;48.086;11.632;2023-02-15T00:10:07;61.53;;;15.27;;
22429;SDS011;11382;48.086;11.632;2023-02-15T00:12:35;68.47;;;15.20;;
22429;SDS011;11382;48.086;11.632;2023-02-15T00:15:04;44.10;;;14.52;;
22429;SDS011;11382;48.086;11.632;2023-02-15T00:17:32;48.90;;;14.27;;
22429;SDS011;11382;48.086;11.632;2023-02-15T00:20:01;42.90;;;14.75;;
22429;SDS011;11382;48.086;11.632;2023-02-15T00:22:28;64.93;;;15.68;;
22429;SDS011;11382;48.086;11.632;2023-02-15T00:24:56;48.45;;;13.55;;
22429;SDS011;11382;48.086;11.632;2023-02-15T00:27:24;35.28;;;13.50;;
22429;SDS011;11382;48.086;11.632;2023-02-15T00:29:52;23.35;;;12.55;;
22429;SDS011;11382;48.086;11.632;2023-02-15T00:32:22;27.48;;;13.35;;
22429;SDS011;11382;48.086;11.632;2023-02-15T00:34:50;30.45;;;13.18;;
22429;SDS011;11382;48.086;11.632;2023-02-15T00:37:18;42.08;;;14.95;;
22429;SDS011;11382;48.086;11.632;2023-02-15T00:39:46;39.00;;;13.77;;
22429;SDS011;11382;48.086;11.632;2023-02-15T00:42:16;21.30;;;11.30;;
22429;SDS011;11382;48.086;11.632;2023-02-15T00:44:44;19.75;;;11.98;;
22429;SDS011;11382;48.086;11.632;2023-02-15T00:47:12;19.05;;;11.85;;
22429;SDS011;11382;48.086;11.632;2023-02-15T00:49:41;19.90;;;11.95;;
22429;SDS011;11382;48.086;11.632;2023-02-15T00:52:10;24.55;;;12.38;;
22429;SDS011;11382;48.086;11.632;2023-02-15T00:54:40;53.40;;;15.38;;
22429;SDS011;11382;48.086;11.632;2023-02-15T00:57:08;30.17;;;12.73;;
22429;SDS011;11382;48.086;11.632;2023-02-15T00:59:36;30.13;;;12.88;;
22429;SDS011;11382;48.086;11.632;2023-02-15T01:02:04;19.10;;;11.80;;
22429;SDS011;11382;48.086;11.632;2023-02-15T01:04:32;21.95;;;12.85;;
22429;SDS011;11382;48.086;11.632;2023-02-15T01:07:03;28.60;;;13.05;;
22429;SDS011;11382;48.086;11.632;2023-02-15T01:09:32;43.42;;;14.73;;
22429;SDS011;11382;48.086;11.632;2023-02-15T01:12:01;48.67;;;14.77;;
22429;SDS011;11382;48.086;11.632;2023-02-15T01:14:30;26.75;;;12.40;;
22429;SDS011;11382;48.086;11.632;2023-02-15T01:16:57;44.25;;;13.85;;
22429;SDS011;11382;48.086;11.632;2023-02-15T01:19:25;37.85;;;14.25;;
22429;SDS011;11382;48.086;11.632;2023-02-15T01:21:53;44.58;;;14.30;;
22429;SDS011;11382;48.086;11.632;2023-02-15T01:24:23;29.38;;;13.60;;
22429;SDS011;11382;48.086;11.632;2023-02-15T01:26:51;43.22;;;15.63;;
22429;SDS011;11382;48.086;11.632;2023-02-15T01:29:19;30.75;;;13.18;;
22429;SDS011;11382;48.086;11.632;2023-02-15T01:31:47;39.92;;;14.60;;
22429;SDS011;11382;48.086;11.632;2023-02-15T01:34:15;59.35;;;14.88;;
22429;SDS011;11382;48.086;11.632;2023-02-15T01:36:43;40.97;;;14.52;;
22429;SDS011;11382;48.086;11.632;2023-02-15T01:39:13;49.85;;;15.65;;
22429;SDS011;11382;48.086;11.632;2023-02-15T01:41:43;54.35;;;16.83;;
22429;SDS011;11382;48.086;11.632;2023-02-15T01:47:20;47.40;;;15.32;;
22429;SDS011;11382;48.086;11.632;2023-02-15T01:49:58;57.30;;;16.83;;
22429;SDS011;11382;48.086;11.632;2023-02-15T01:52:29;40.35;;;14.50;;
22429;SDS011;11382;48.086;11.632;2023-02-15T01:54:58;42.38;;;14.60;;
22429;SDS011;11382;48.086;11.632;2023-02-15T01:57:30;33.80;;;14.85;;
22429;SDS011;11382;48.086;11.632;2023-02-15T01:59:58;51.88;;;16.73;;
22429;SDS011;11382;48.086;11.632;2023-02-15T02:02:37;60.60;;;18.08;;
22429;SDS011;11382;48.086;11.632;2023-02-15T02:05:07;40.63;;;15.10;;
22429;SDS011;11382;48.086;11.632;2023-02-15T02:07:37;61.63;;;16.40;;
22429;SDS011;11382;48.086;11.632;2023-02-15T02:10:09;46.42;;;15.30;;
22429;SDS011;11382;48.086;11.632;2023-02-15T02:12:41;110.05;;;20.30;;
22429;SDS011;11382;48.086;11.632;2023-02-15T02:15:11;40.30;;;15.10;;
22429;SDS011;11382;48.086;11.632;2023-02-15T02:17:42;35.47;;;16.08;;
22429;SDS011;11382;48.086;11.632;2023-02-15T02:20:29;61.70;;;17.10;;
22429;SDS011;11382;48.086;11.632;2023-02-15T02:23:24;58.85;;;17.55;;
22429;SDS011;11382;48.086;11.632;2023-02-15T02:26:05;89.20;;;18.48;;
22429;SDS011;11382;48.086;11.632;2023-02-15T02:34:35;41.28;;;15.10;;
22429;SDS011;11382;48.086;11.632;2023-02-15T02:37:12;47.13;;;15.68;;
22429;SDS011;11382;48.086;11.632;2023-02-15T02:39:48;28.48;;;13.30;;
22429;SDS011;11382;48.086;11.632;2023-02-15T02:42:25;57.50;;;16.33;;
22429;SDS011;11382;48.086;11.632;2023-02-15T02:44:59;81.97;;;18.83;;
22429;SDS011;11382;48.086;11.632;2023-02-15T02:47:32;38.03;;;14.18;;
22429;SDS011;11382;48.086;11.632;2023-02-15T02:50:07;38.58;;;15.45;;
22429;SDS011;11382;48.086;11.632;2023-02-15T02:52:38;65.63;;;17.80;;
22429;SDS011;11382;48.086;11.632;2023-02-15T02:55:08;66.63;;;18.10;;
22429;SDS011;11382;48.086;11.632;2023-02-15T03:00:13;66.28;;;18.02;;
22429;SDS011;11382;48.086;11.632;2023-02-15T03:02:43;36.30;;;15.50;;
22429;SDS011;11382;48.086;11.632;2023-02-15T03:05:17;55.33;;;17.33;;
22429;SDS011;11382;48.086;11.632;2023-02-15T03:07:49;41.67;;;15.82;;
22429;SDS011;11382;48.086;11.632;2023-02-15T03:10:20;37.20;;;15.02;;
22429;SDS011;11382;48.086;11.632;2023-02-15T03:12:50;95.57;;;20.02;;
22429;SDS011;11382;48.086;11.632;2023-02-15T03:15:20;45.67;;;16.15;;
22429;SDS011;11382;48.086;11.632;2023-02-15T03:17:53;52.75;;;16.60;;
22429;SDS011;11382;48.086;11.632;2023-02-15T03:20:27;65.80;;;16.45;;
22429;SDS011;11382;48.086;11.632;2023-02-15T03:23:01;52.95;;;16.63;;
22429;SDS011;11382;48.086;11.632;2023-02-15T03:25:32;60.80;;;17.55;;
22429;SDS011;11382;48.086;11.632;2023-02-15T03:28:05;59.78;;;17.45;;
22429;SDS011;11382;48.086;11.632;2023-02-15T03:30:36;34.97;;;15.23;;
22429;SDS011;11382;48.086;11.632;2023-02-15T03:33:06;30.58;;;14.23;;
22429;SDS011;11382;48.086;11.632;2023-02-15T03:35:39;24.42;;;14.18;;
22429;SDS011;11382;48.086;11.632;2023-02-15T03:38:14;19.92;;;12.80;;
22429;SDS011;11382;48.086;11.632;2023-02-15T03:40:47;19.58;;;13.57;;
22429;SDS011;11382;48.086;11.632;2023-02-15T03:43:35;22.63;;;14.18;;
22429;SDS011;11382;48.086;11.632;2023-02-15T03:46:11;22.20;;;12.98;;
22429;SDS011;11382;48.086;11.632;2023-02-15T03:48:44;22.52;;;14.45;;
22429;SDS011;11382;48.086;11.632;2023-02-15T03:51:18;31.00;;;15.15;;
22429;SDS011;11382;48.086;11.632;2023-02-15T03:54:02;26.67;;;14.13;;
22429;SDS011;11382;48.086;11.632;2023-02-15T03:56:33;57.58;;;17.25;;
22429;SDS011;11382;48.086;11.632;2023-02-15T03:59:02;20.55;;;12.52;;
22429;SDS011;11382;48.086;11.632;2023-02-15T04:01:52;45.55;;;14.68;;
22429;SDS011;11382;48.086;11.632;2023-02-15T04:04:31;42.40;;;16.98;;
22429;SDS011;11382;48.086;11.632;2023-02-15T04:07:04;81.10;;;19.40;;
22429;SDS011;11382;48.086;11.632;2023-02-15T04:09:33;93.40;;;21.77;;
22429;SDS011;11382;48.086;11.632;2023-02-15T04:12:19;46.75;;;15.77;;
22429;SDS011;11382;48.086;11.632;2023-02-15T04:14:47;72.07;;;17.75;;
22429;SDS011;11382;48.086;11.632;2023-02-15T04:17:33;45.03;;;16.23;;
22429;SDS011;11382;48.086;11.632;2023-02-15T04:20:02;116.88;;;23.67;;
22429;SDS011;11382;48.086;11.632;2023-02-15T04:22:51;89.85;;;20.17;;
22429;SDS011;11382;48.086;11.632;2023-02-15T04:25:36;111.28;;;22.27;;
22429;SDS011;11382;48.086;11.632;2023-02-15T04:28:04;72.50;;;18.52;;
22429;SDS011;11382;48.086;11.632;2023-02-15T04:30:33;65.90;;;17.02;;
22429;SDS011;11382;48.086;11.632;2023-02-15T04:33:01;64.28;;;17.88;;
22429;SDS011;11382;48.086;11.632;2023-02-15T04:35:29;74.05;;;17.60;;
22429;SDS011;11382;48.086;11.632;2023-02-15T04:37:59;106.70;;;22.80;;
22429;SDS011;11382;48.086;11.632;2023-02-15T04:40:27;73.60;;;17.90;;
22429;SDS011;11382;48.086;11.632;2023-02-15T04:42:55;70.20;;;20.52;;
22429;SDS011;11382;48.086;11.632;2023-02-15T04:45:23;51.25;;;17.08;;
22429;SDS011;11382;48.086;11.632;2023-02-15T04:47:53;27.98;;;14.45;;
22429;SDS011;11382;48.086;11.632;2023-02-15T04:50:21;41.35;;;15.45;;
22429;SDS011;11382;48.086;11.632;2023-02-15T04:52:49;69.13;;;18.80;;
22429;SDS011;11382;48.086;11.632;2023-02-15T04:55:19;40.53;;;15.23;;
22429;SDS011;11382;48.086;11.632;2023-02-15T04:57:47;28.90;;;14.98;;
22429;SDS011;11382;48.086;11.632;2023-02-15T05:00:15;39.83;;;15.73;;
22429;SDS011;11382;48.086;11.632;2023-02-15T05:02:43;26.83;;;13.68;;
22429;SDS011;11382;48.086;11.632;2023-02-15T05:05:11;27.08;;;14.18;;
22429;SDS011;11382;48.086;11.632;2023-02-15T05:07:41;24.27;;;13.95;;
22429;SDS011;11382;48.086;11.632;2023-02-15T05:10:09;33.97;;;15.63;;
22429;SDS011;11382;48.086;11.632;2023-02-15T05:12:39;27.95;;;14.32;;
22429;SDS011;11382;48.086;11.632;2023-02-15T05:15:07;45.50;;;16.38;;
22429;SDS011;11382;48.086;11.632;2023-02-15T05:17:36;47.85;;;15.98;;
22429;SDS011;11382;48.086;11.632;2023-02-15T05:20:04;62.40;;;18.08;;
22429;SDS011;11382;48.086;11.632;2023-02-15T05:22:34;62.17;;;19.15;;
22429;SDS011;11382;48.086;11.632;2023-02-15T05:25:03;45.80;;;15.45;;
22429;SDS011;11382;48.086;11.632;2023-02-15T05:27:49;44.45;;;15.57;;
22429;SDS011;11382;48.086;11.632;2023-02-15T05:30:35;63.13;;;16.73;;
22429;SDS011;11382;48.086;11.632;2023-02-15T05:33:03;96.82;;;20.83;;
22429;SDS011;11382;48.086;11.632;2023-02-15T05:35:31;50.03;;;15.95;;
22429;SDS011;11382;48.086;11.632;2023-02-15T05:38:00;27.13;;;13.93;;
22429;SDS011;11382;48.086;11.632;2023-02-15T05:40:28;27.23;;;13.43;;
22429;SDS011;11382;48.086;11.632;2023-02-15T05:42:57;39.78;;;15.68;;
22429;SDS011;11382;48.086;11.632;2023-02-15T05:45:25;38.38;;;15.50;;
22429;SDS011;11382;48.086;11.632;2023-02-15T05:47:53;50.58;;;15.88;;
22429;SDS011;11382;48.086;11.632;2023-02-15T05:50:24;47.97;;;17.02;;
22429;SDS011;11382;48.086;11.632;2023-02-15T05:52:52;54.17;;;17.13;;
22429;SDS011;11382;48.086;11.632;2023-02-15T05:55:20;64.20;;;19.02;;
22429;SDS011;11382;48.086;11.632;2023-02-15T05:57:48;59.83;;;15.82;;
22429;SDS011;11382;48.086;11.632;2023-02-15T06:00:18;54.28;;;15.90;;
22429;SDS011;11382;48.086;11.632;2023-02-15T06:02:46;58.45;;;18.48;;
22429;SDS011;11382;48.086;11.632;2023-02-15T06:05:14;85.53;;;20.13;;
22429;SDS011;11382;48.086;11.632;2023-02-15T06:07:42;64.63;;;17.10;;
22429;SDS011;11382;48.086;11.632;2023-02-15T06:10:11;51.05;;;16.58;;
22429;SDS011;11382;48.086;11.632;2023-02-15T06:12:39;67.25;;;18.15;;
22429;SDS011;11382;48.086;11.632;2023-02-15T06:15:07;51.95;;;17.92;;
22429;SDS011;11382;48.086;11.632;2023-02-15T06:17:37;31.92;;;15.07;;
22429;SDS011;11382;48.086;11.632;2023-02-15T06:20:08;59.35;;;16.42;;
22429;SDS011;11382;48.086;11.632;2023-02-15T06:22:36;56.40;;;17.23;;
22429;SDS011;11382;48.086;11.632;2023-02-15T06:25:04;52.03;;;18.02;;
22429;SDS011;11382;48.086;11.632;2023-02-15T06:27:36;81.45;;;20.35;;
22429;SDS011;11382;48.086;11.632;2023-02-15T06:30:04;77.75;;;19.65;;
22429;SDS011;11382;48.086;11.632;2023-02-15T06:32:33;34.70;;;16.30;;
22429;SDS011;11382;48.086;11.632;2023-02-15T06:35:03;33.42;;;15.70;;
22429;SDS011;11382;48.086;11.632;2023-02-15T06:37:31;48.65;;;16.30;;
22429;SDS011;11382;48.086;11.632;2023-02-15T06:39:59;52.35;;;17.77;;
22429;SDS011;11382;48.086;11.632;2023-02-15T06:42:29;46.67;;;15.93;;
22429;SDS011;11382;48.086;11.632;2023-02-15T06:44:57;56.97;;;18.08;;
22429;SDS011;11382;48.086;11.632;2023-02-15T06:47:26;53.13;;;16.08;;
22429;SDS011;11382;48.086;11.632;2023-02-15T06:49:54;39.65;;;14.88;;
22429;SDS011;11382;48.086;11.632;2023-02-15T06:52:25;30.02;;;15.07;;
22429;SDS011;11382;48.086;11.632;2023-02-15T06:54:53;43.35;;;15.65;;
22429;SDS011;11382;48.086;11.632;2023-02-15T06:57:21;26.38;;;14.38;;
22429;SDS011;11382;48.086;11.632;2023-02-15T06:59:49;29.00;;;13.77;;
22429;SDS011;11382;48.086;11.632;2023-02-15T07:02:19;34.75;;;15.02;;
22429;SDS011;11382;48.086;11.632;2023-02-15T07:04:47;42.90;;;15.57;;
22429;SDS011;11382;48.086;11.632;2023-02-15T07:07:15;42.78;;;16.30;;
22429;SDS011;11382;48.086;11.632;2023-02-15T07:09:45;32.15;;;15.40;;
22429;SDS011;11382;48.086;11.632;2023-02-15T07:12:12;31.98;;;14.65;;
22429;SDS011;11382;48.086;11.632;2023-02-15T07:14:58;26.67;;;14.88;;
22429;SDS011;11382;48.086;11.632;2023-02-15T07:17:26;32.88;;;15.80;;
22429;SDS011;11382;48.086;11.632;2023-02-15T07:20:03;26.77;;;14.52;;
22429;SDS011;11382;48.086;11.632;2023-02-15T07:22:34;37.40;;;16.75;;
22429;SDS011;11382;48.086;11.632;2023-02-15T07:25:05;44.95;;;18.50;;
22429;SDS011;11382;48.086;11.632;2023-02-15T07:27:37;32.63;;;15.15;;
22429;SDS011;11382;48.086;11.632;2023-02-15T07:30:06;32.92;;;15.98;;
22429;SDS011;11382;48.086;11.632;2023-02-15T07:32:36;33.83;;;15.68;;
22429;SDS011;11382;48.086;11.632;2023-02-15T07:35:24;32.63;;;15.98;;
22429;SDS011;11382;48.086;11.632;2023-02-15T07:37:54;33.80;;;15.88;;
22429;SDS011;11382;48.086;11.632;2023-02-15T07:40:23;38.03;;;17.75;;
22429;SDS011;11382;48.086;11.632;2023-02-15T07:42:51;38.58;;;18.20;;
22429;SDS011;11382;48.086;11.632;2023-02-15T07:45:21;37.38;;;17.25;;
22429;SDS011;11382;48.086;11.632;2023-02-15T07:47:49;45.42;;;17.58;;
22429;SDS011;11382;48.086;11.632;2023-02-15T07:50:17;36.47;;;17.38;;
22429;SDS011;11382;48.086;11.632;2023-02-15T07:52:46;36.08;;;18.30;;
22429;SDS011;11382;48.086;11.632;2023-02-15T07:55:14;28.63;;;16.38;;
22429;SDS011;11382;48.086;11.632;2023-02-15T07:57:44;30.95;;;16.80;;
22429;SDS011;11382;48.086;11.632;2023-02-15T08:00:14;32.20;;;17.80;;
22429;SDS011;11382;48.086;11.632;2023-02-15T08:02:47;36.85;;;17.55;;
22429;SDS011;11382;48.086;11.632;2023-02-15T08:05:15;35.55;;;15.70;;
22429;SDS011;11382;48.086;11.632;2023-02-15T08:07:44;22.92;;;15.45;;
22429;SDS011;11382;48.086;11.632;2023-02-15T08:10:12;28.30;;;15.25;;
22429;SDS011;11382;48.086;11.632;2023-02-15T08:13:02;26.17;;;15.85;;
22429;SDS011;11382;48.086;11.632;2023-02-15T08:15:30;28.60;;;16.30;;
22429;SDS011;11382;48.086;11.632;2023-02-15T08:17:58;31.00;;;15.02;;
22429;SDS011;11382;48.086;11.632;2023-02-15T08:20:26;25.48;;;14.90;;
22429;SDS011;11382;48.086;11.632;2023-02-15T08:22:54;21.90;;;12.45;;
22429;SDS011;11382;48.086;11.632;2023-02-15T08:25:22;21.70;;;12.43;;
22429;SDS011;11382;48.086;11.632;2023-02-15T08:27:50;21.60;;;11.98;;
22429;SDS011;11382;48.086;11.632;2023-02-15T08:30:22;22.38;;;12.85;;
22429;SDS011;11382;48.086;11.632;2023-02-15T08:32:51;18.20;;;11.50;;
22429;SDS011;11382;48.086;11.632;2023-02-15T08:35:19;17.40;;;11.10;;
22429;SDS011;11382;48.086;11.632;2023-02-15T08:37:47;16.45;;;10.95;;
22429;SDS011;11382;48.086;11.632;2023-02-15T08:40:15;15.30;;;9.90;;
22429;SDS011;11382;48.086;11.632;2023-02-15T08:42:43;15.02;;;10.02;;
22429;SDS011;11382;48.086;11.632;2023-02-15T08:45:11;13.02;;;9.52;;
22429;SDS011;11382;48.086;11.632;2023-02-15T08:47:40;15.50;;;9.45;;
22429;SDS011;11382;48.086;11.632;2023-02-15T08:50:09;14.75;;;9.82;;
22429;SDS011;11382;48.086;11.632;2023-02-15T08:52:37;11.60;;;8.57;;
22429;SDS011;11382;48.086;11.632;2023-02-15T08:55:05;11.15;;;8.88;;
22429;SDS011;11382;48.086;11.632;2023-02-15T08:57:33;10.52;;;8.35;;
22429;SDS011;11382;48.086;11.632;2023-02-15T09:00:02;13.02;;;9.50;;
22429;SDS011;11382;48.086;11.632;2023-02-15T09:02:31;12.95;;;9.30;;
22429;SDS011;11382;48.086;11.632;2023-02-15T09:05:01;14.07;;;10.35;;
22429;SDS011;11382;48.086;11.632;2023-02-15T09:07:31;14.90;;;10.95;;
22429;SDS011;11382;48.086;11.632;2023-02-15T09:09:59;16.45;;;11.13;;
22429;SDS011;11382;48.086;11.632;2023-02-15T09:12:27;16.33;;;11.88;;
22429;SDS011;11382;48.086;11.632;2023-02-15T09:14:55;13.63;;;10.30;;
22429;SDS011;11382;48.086;11.632;2023-02-15T09:17:23;11.63;;;9.07;;
22429;SDS011;11382;48.086;11.632;2023-02-15T09:19:51;14.02;;;9.60;;
22429;SDS011;11382;48.086;11.632;2023-02-15T09:22:21;12.48;;;9.25;;
22429;SDS011;11382;48.086;11.632;2023-02-15T09:24:49;13.80;;;10.23;;
22429;SDS011;11382;48.086;11.632;2023-02-15T09:27:17;12.45;;;9.48;;
22429;SDS011;11382;48.086;11.632;2023-02-15T09:29:44;12.30;;;9.05;;
22429;SDS011;11382;48.086;11.632;2023-02-15T09:32:13;11.63;;;9.05;;
22429;SDS011;11382;48.086;11.632;2023-02-15T09:34:41;10.80;;;8.57;;
22429;SDS011;11382;48.086;11.632;2023-02-15T09:37:09;11.40;;;9.43;;
22429;SDS011;11382;48.086;11.632;2023-02-15T09:39:39;11.57;;;9.00;;
22429;SDS011;11382;48.086;11.632;2023-02-15T09:42:19;10.25;;;8.80;;
22429;SDS011;11382;48.086;11.632;2023-02-15T09:45:04;11.63;;;8.60;;
22429;SDS011;11382;48.086;11.632;2023-02-15T09:47:54;9.52;;;8.38;;
22429;SDS011;11382;48.086;11.632;2023-02-15T09:50:37;10.25;;;8.65;;
22429;SDS011;11382;48.086;11.632;2023-02-15T09:53:17;12.20;;;8.70;;
22429;SDS011;11382;48.086;11.632;2023-02-15T09:56:09;12.55;;;9.10;;
22429;SDS011;11382;48.086;11.632;2023-02-15T09:58:46;12.20;;;8.90;;
22429;SDS011;11382;48.086;11.632;2023-02-15T10:01:24;8.63;;;7.63;;
22429;SDS011;11382;48.086;11.632;2023-02-15T10:04:06;9.07;;;7.70;;
22429;SDS011;11382;48.086;11.632;2023-02-15T10:06:48;11.15;;;8.52;;
22429;SDS011;11382;48.086;11.632;2023-02-15T10:12:35;9.30;;;8.13;;
22429;SDS011;11382;48.086;11.632;2023-02-15T10:15:16;8.48;;;7.15;;
22429;SDS011;11382;48.086;11.632;2023-02-15T10:18:00;9.90;;;7.82;;
22429;SDS011;11382;48.086;11.632;2023-02-15T10:20:45;9.07;;;7.68;;
22429;SDS011;11382;48.086;11.632;2023-02-15T10:23:27;8.65;;;7.18;;
22429;SDS011;11382;48.086;11.632;2023-02-15T10:26:11;9.43;;;7.40;;
22429;SDS011;11382;48.086;11.632;2023-02-15T10:28:48;12.13;;;8.07;;
22429;SDS011;11382;48.086;11.632;2023-02-15T10:31:22;12.13;;;7.77;;
22429;SDS011;11382;48.086;11.632;2023-02-15T10:34:00;8.85;;;7.35;;
22429;SDS011;11382;48.086;11.632;2023-02-15T10:36:45;8.23;;;7.13;;
22429;SDS011;11382;48.086;11.632;2023-02-15T10:39:32;8.40;;;7.28;;
22429;SDS011;11382;48.086;11.632;2023-02-15T10:42:10;12.20;;;8.50;;
22429;SDS011;11382;48.086;11.632;2023-02-15T10:44:52;10.75;;;8.02;;
22429;SDS011;11382;48.086;11.632;2023-02-15T10:47:41;10.25;;;8.05;;
22429;SDS011;11382;48.086;11.632;2023-02-15T10:50:19;9.98;;;7.55;;
22429;SDS011;11382;48.086;11.632;2023-02-15T10:53:03;10.65;;;7.55;;
22429;SDS011;11382;48.086;11.632;2023-02-15T10:55:41;9.60;;;7.65;;
22429;SDS011;11382;48.086;11.632;2023-02-15T10:58:24;10.37;;;8.23;;
22429;SDS011;11382;48.086;11.632;2023-02-15T11:01:02;9.25;;;7.82;;
22429;SDS011;11382;48.086;11.632;2023-02-15T11:03:46;10.57;;;8.18;;
22429;SDS011;11382;48.086;11.632;2023-02-15T11:06:25;12.38;;;7.68;;
22429;SDS011;11382;48.086;11.632;2023-02-15T11:08:55;8.82;;;7.45;;
22429;SDS011;11382;48.086;11.632;2023-02-15T11:11:29;14.23;;;8.65;;
22429;SDS011;11382;48.086;11.632;2023-02-15T11:14:02;11.68;;;8.18;;
22429;SDS011;11382;48.086;11.632;2023-02-15T11:16:34;13.02;;;9.07;;
22429;SDS011;11382;48.086;11.632;2023-02-15T11:19:05;15.50;;;9.63;;
22429;SDS011;11382;48.086;11.632;2023-02-15T11:21:39;14.20;;;10.00;;
22429;SDS011;11382;48.086;11.632;2023-02-15T11:24:11;12.75;;;8.95;;
22429;SDS011;11382;48.086;11.632;2023-02-15T11:26:41;15.55;;;9.38;;
22429;SDS011;11382;48.086;11.632;2023-02-15T11:29:12;11.85;;;9.18;;
22429;SDS011;11382;48.086;11.632;2023-02-15T11:31:47;12.43;;;9.43;;
22429;SDS011;11382;48.086;11.632;2023-02-15T11:34:22;12.55;;;8.93;;
22429;SDS011;11382;48.086;11.632;2023-02-15T11:36:54;13.25;;;9.38;;
22429;SDS011;11382;48.086;11.632;2023-02-15T11:39:26;14.50;;;9.80;;
22429;SDS011;11382;48.086;11.632;2023-02-15T11:42:00;15.52;;;9.57;;
22429;SDS011;11382;48.086;11.632;2023-02-15T11:44:32;15.25;;;9.75;;
22429;SDS011;11382;48.086;11.632;2023-02-15T11:47:07;13.23;;;8.82;;
22429;SDS011;11382;48.086;11.632;2023-02-15T11:49:37;14.60;;;10.05;;
22429;SDS011;11382;48.086;11.632;2023-02-15T11:52:07;14.18;;;9.05;;
22429;SDS011;11382;48.086;11.632;2023-02-15T11:54:40;14.93;;;10.25;;
22429;SDS011;11382;48.086;11.632;2023-02-15T11:57:11;15.75;;;9.65;;
22429;SDS011;11382;48.086;11.632;2023-02-15T11:59:43;17.70;;;9.80;;
22429;SDS011;11382;48.086;11.632;2023-02-15T12:02:16;14.00;;;10.25;;
22429;SDS011;11382;48.086;11.632;2023-02-15T12:04:48;16.52;;;10.45;;
22429;SDS011;11382;48.086;11.632;2023-02-15T12:09:53;15.10;;;10.73;;
22429;SDS011;11382;48.086;11.632;2023-02-15T12:12:28;16.95;;;10.35;;
22429;SDS011;11382;48.086;11.632;2023-02-15T12:14:57;19.85;;;10.73;;
22429;SDS011;11382;48.086;11.632;2023-02-15T12:17:29;15.32;;;10.43;;
22429;SDS011;11382;48.086;11.632;2023-02-15T12:20:00;13.75;;;9.60;;
22429;SDS011;11382;48.086;11.632;2023-02-15T12:22:32;14.55;;;10.40;;
22429;SDS011;11382;48.086;11.632;2023-02-15T12:25:03;16.83;;;10.50;;
22429;SDS011;11382;48.086;11.632;2023-02-15T12:27:47;15.38;;;10.23;;
22429;SDS011;11382;48.086;11.632;2023-02-15T12:30:18;17.80;;;10.32;;
22429;SDS011;11382;48.086;11.632;2023-02-15T12:32:52;14.65;;;9.60;;
22429;SDS011;11382;48.086;11.632;2023-02-15T12:35:26;18.23;;;9.55;;
22429;SDS011;11382;48.086;11.632;2023-02-15T12:37:58;20.38;;;9.85;;
22429;SDS011;11382;48.086;11.632;2023-02-15T12:40:30;15.45;;;9.93;;
22429;SDS011;11382;48.086;11.632;2023-02-15T12:43:00;14.88;;;9.70;;
22429;SDS011;11382;48.086;11.632;2023-02-15T12:45:37;17.20;;;10.07;;
22429;SDS011;11382;48.086;11.632;2023-02-15T12:48:13;16.90;;;10.48;;
22429;SDS011;11382;48.086;11.632;2023-02-15T12:50:43;15.07;;;9.63;;
22429;SDS011;11382;48.086;11.632;2023-02-15T12:53:16;14.10;;;9.65;;
22429;SDS011;11382;48.086;11.632;2023-02-15T12:55:50;15.32;;;9.32;;
22429;SDS011;11382;48.086;11.632;2023-02-15T12:58:20;13.30;;;9.05;;
22429;SDS011;11382;48.086;11.632;2023-02-15T13:03:55;14.23;;;8.77;;
22429;SDS011;11382;48.086;11.632;2023-02-15T13:06:26;14.98;;;8.40;;
22429;SDS011;11382;48.086;11.632;2023-02-15T13:08:55;14.93;;;8.63;;
22429;SDS011;11382;48.086;11.632;2023-02-15T13:11:26;19.98;;;9.85;;
22429;SDS011;11382;48.086;11.632;2023-02-15T13:14:00;16.48;;;8.80;;
22429;SDS011;11382;48.086;11.632;2023-02-15T13:16:32;17.30;;;9.85;;
22429;SDS011;11382;48.086;11.632;2023-02-15T13:19:05;14.23;;;9.40;;
22429;SDS011;11382;48.086;11.632;2023-02-15T13:21:40;18.52;;;9.60;;
22429;SDS011;11382;48.086;11.632;2023-02-15T13:24:15;14.68;;;8.73;;
22429;SDS011;11382;48.086;11.632;2023-02-15T13:26:48;20.15;;;9.65;;
22429;SDS011;11382;48.086;11.632;2023-02-15T13:29:17;16.10;;;9.50;;
22429;SDS011;11382;48.086;11.632;2023-02-15T13:31:50;19.27;;;10.27;;
22429;SDS011;11382;48.086;11.632;2023-02-15T13:34:22;20.33;;;10.35;;
22429;SDS011;11382;48.086;11.632;2023-02-15T13:39:26;19.40;;;10.27;;
22429;SDS011;11382;48.086;11.632;2023-02-15T13:42:03;17.70;;;10.05;;
22429;SDS011;11382;48.086;11.632;2023-02-15T13:44:47;20.88;;;10.35;;
22429;SDS011;11382;48.086;11.632;2023-02-15T13:47:37;18.30;;;10.75;;
22429;SDS011;11382;48.086;11.632;2023-02-15T13:50:20;18.65;;;9.93;;
22429;SDS011;11382;48.086;11.632;2023-02-15T13:53:02;20.77;;;10.38;;
22429;SDS011;11382;48.086;11.632;2023-02-15T13:55:44;21.25;;;10.23;;
22429;SDS011;11382;48.086;11.632;2023-02-15T13:58:22;22.88;;;10.55;;
22429;SDS011;11382;48.086;11.632;2023-02-15T14:01:09;21.92;;;11.18;;
22429;SDS011;11382;48.086;11.632;2023-02-15T14:03:58;20.95;;;10.88;;
22429;SDS011;11382;48.086;11.632;2023-02-15T14:06:45;17.83;;;10.82;;
22429;SDS011;11382;48.086;11.632;2023-02-15T14:09:24;19.67;;;11.00;;
22429;SDS011;11382;48.086;11.632;2023-02-15T14:12:04;16.38;;;11.52;;
22429;SDS011;11382;48.086;11.632;2023-02-15T14:14:52;16.67;;;10.35;;
22429;SDS011;11382;48.086;11.632;2023-02-15T14:17:35;18.85;;;10.90;;
22429;SDS011;11382;48.086;11.632;2023-02-15T14:20:17;19.48;;;12.02;;
22429;SDS011;11382;48.086;11.632;2023-02-15T14:22:52;21.92;;;11.13;;
22429;SDS011;11382;48.086;11.632;2023-02-15T14:25:30;16.52;;;10.65;;
22429;SDS011;11382;48.086;11.632;2023-02-15T14:28:04;19.15;;;11.88;;
22429;SDS011;11382;48.086;11.632;2023-02-15T14:30:37;18.77;;;11.32;;
22429;SDS011;11382;48.086;11.632;2023-02-15T14:33:08;25.25;;;12.38;;
22429;SDS011;11382;48.086;11.632;2023-02-15T14:35:50;20.00;;;12.35;;
22429;SDS011;11382;48.086;11.632;2023-02-15T14:38:21;19.50;;;11.57;;
22429;SDS011;11382;48.086;11.632;2023-02-15T14:40:59;20.30;;;12.35;;
22429;SDS011;11382;48.086;11.632;2023-02-15T14:43:36;19.65;;;12.45;;
22429;SDS011;11382;48.086;11.632;2023-02-15T14:46:16;23.92;;;12.68;;
22429;SDS011;11382;48.086;11.632;2023-02-15T14:48:53;19.45;;;12.77;;
22429;SDS011;11382;48.086;11.632;2023-02-15T14:57:30;21.80;;;12.68;;
22429;SDS011;11382;48.086;11.632;2023-02-15T15:00:28;19.17;;;12.45;;
22429;SDS011;11382;48.086;11.632;2023-02-15T15:03:00;18.63;;;11.32;;
22429;SDS011;11382;48.086;11.632;2023-02-15T15:05:31;18.48;;;12.20;;
22429;SDS011;11382;48.086;11.632;2023-02-15T15:08:02;19.63;;;11.93;;
22429;SDS011;11382;48.086;11.632;2023-02-15T15:10:36;20.23;;;12.55;;
22429;SDS011;11382;48.086;11.632;2023-02-15T15:18:53;22.48;;;14.55;;